Afton, Wisconsin
Current Conditions -  °F | °C
As of 12:45 PM on Friday 31 Oct 2014 (Local Time) from KJVL Reporting Station
Overcast Overcast  
Wind Chill: -3°   Ceiling: 4000
Heat Index:   Visibility: 10mi
Dew Point: -7°   Wind: 24mph
Humidity: 48%   Direction: 10°N
Pressure: 30.28"   Gusts: 36mph
Location:  42.6°N, 89.07°W
Report Text: KJVL 311745Z 01021G31KT 10SM BKN040 OVC046 03/M07 A3028
Loading
Personal Weather Stations






























Interactive Weather Map
Tropical Storm Tracking
New forecast layout! Learn more

10-Day Weather Forecast

Advertisements
Track Severe Weather on mobile